createdAt,value
2019-04-14T00:03:43.263Z,3.41
2019-04-14T00:08:50.755Z,4.25
2019-04-14T00:14:00.904Z,4.05
2019-04-14T00:19:08.746Z,3.89
2019-04-14T00:24:16.774Z,4.29
2019-04-14T00:29:26.302Z,5.02
2019-04-14T00:34:35.323Z,4.24
2019-04-14T00:39:42.739Z,4.89
2019-04-14T00:44:51.854Z,4.01
2019-04-14T00:50:01.662Z,3.88
2019-04-14T00:55:09.692Z,4.74
2019-04-14T01:00:18.845Z,4.87
2019-04-14T01:05:26.254Z,5.84
2019-04-14T01:10:35.030Z,4.51
2019-04-14T01:15:55.745Z,2.92
2019-04-14T01:20:45.019Z,3.05
2019-04-14T01:25:54.213Z,4.39
2019-04-14T01:31:03.368Z,3.65
2019-04-14T01:36:12.664Z,3.45
2019-04-14T01:41:19.962Z,3.04
2019-04-14T01:46:30.944Z,4.23
2019-04-14T01:51:37.457Z,4.58
2019-04-14T01:56:47.101Z,3.73
2019-04-14T02:01:54.794Z,4.99
2019-04-14T02:07:03.910Z,4.03
2019-04-14T02:12:12.846Z,3.22
2019-04-14T02:17:22.050Z,5.32
2019-04-14T02:22:31.227Z,4.36
2019-04-14T02:27:38.751Z,4.33
2019-04-14T02:33:15.371Z,4.74
2019-04-14T02:38:33.455Z,4.57
2019-04-14T02:43:41.671Z,4.50
2019-04-14T02:48:44.768Z,4.60
2019-04-14T02:53:49.805Z,5.45
2019-04-14T02:59:02.119Z,5.68
2019-04-14T03:04:01.853Z,4.35
2019-04-14T03:09:23.854Z,4.12
2019-04-14T03:14:21.528Z,5.01
2019-04-14T03:19:41.135Z,5.14
2019-04-14T03:24:32.730Z,4.49
2019-04-14T03:35:03.630Z,4.72
2019-04-14T03:40:01.736Z,5.70
2019-04-14T03:45:22.249Z,5.11
2019-04-14T03:50:21.068Z,4.81
2019-04-14T03:55:16.265Z,5.07
2019-04-14T04:00:12.034Z,5.45
2019-04-14T04:05:21.595Z,5.42
2019-04-14T04:10:29.454Z,5.64
2019-04-14T04:15:38.885Z,4.91
2019-04-14T04:20:47.723Z,5.45
2019-04-14T04:25:55.460Z,5.30
2019-04-14T04:31:04.572Z,4.18
2019-04-14T04:36:13.911Z,4.94
2019-04-14T04:41:21.833Z,4.32
2019-04-14T04:46:30.944Z,4.41
2019-04-14T04:51:40.013Z,3.23
2019-04-14T04:56:49.357Z,4.47
2019-04-14T05:01:58.050Z,5.55
2019-04-14T05:07:05.689Z,4.50
2019-04-14T05:12:15.329Z,4.29
2019-04-14T05:17:23.388Z,6.57
2019-04-14T05:22:33.180Z,4.51
2019-04-14T05:27:40.929Z,4.34
2019-04-14T05:32:50.122Z,5.58
2019-04-14T05:37:58.007Z,6.94
2019-04-14T05:43:06.960Z,7.84
2019-04-14T05:48:16.093Z,5.00
2019-04-14T05:53:26.138Z,3.57
2019-04-14T05:58:33.966Z,5.86
2019-04-14T06:03:43.137Z,5.86
2019-04-14T06:08:50.251Z,4.33
2019-04-14T06:13:59.239Z,6.09
2019-04-14T06:19:08.157Z,7.06
2019-04-14T06:24:17.366Z,5.52
2019-04-14T06:29:26.302Z,5.01
2019-04-14T06:34:35.323Z,5.52
2019-04-14T06:39:44.227Z,4.11
2019-04-14T06:44:53.174Z,6.75
2019-04-14T06:50:02.114Z,6.72
2019-04-14T06:55:11.063Z,6.97
2019-04-14T07:00:20.001Z,5.53
2019-04-14T07:05:28.926Z,7.86
2019-04-14T07:10:37.851Z,7.33
2019-04-14T07:15:46.805Z,8.80
2019-04-14T07:20:55.716Z,7.79
2019-04-14T07:26:04.686Z,8.78
2019-04-14T07:31:13.586Z,8.15
2019-04-14T07:36:22.550Z,8.62
2019-04-14T07:41:31.469Z,8.44
2019-04-14T07:46:40.470Z,9.45
2019-04-14T07:51:49.402Z,9.22
2019-04-14T07:56:58.363Z,9.44
2019-04-14T08:02:07.375Z,8.43
2019-04-14T08:07:16.299Z,7.57
2019-04-14T08:12:25.255Z,7.58
2019-04-14T08:17:34.200Z,7.77
2019-04-14T08:22:43.206Z,7.55
2019-04-14T08:27:52.200Z,9.23
2019-04-14T08:33:01.186Z,8.27
2019-04-14T08:38:10.111Z,4.28
2019-04-14T08:43:19.098Z,3.66
2019-04-14T08:48:28.108Z,4.10
2019-04-14T08:53:37.102Z,7.46
2019-04-14T08:58:47.112Z,8.26
2019-04-14T09:08:56.987Z,8.14
2019-04-14T09:13:55.912Z,6.58
2019-04-14T09:19:07.819Z,5.03
2019-04-14T09:24:13.410Z,8.87
2019-04-14T09:29:22.347Z,7.37
2019-04-14T09:34:31.283Z,6.73
2019-04-14T09:39:40.278Z,8.84
2019-04-14T09:44:49.224Z,7.80
2019-04-14T09:49:58.172Z,8.05
2019-04-14T09:55:07.110Z,6.76
2019-04-14T10:00:16.077Z,7.03
2019-04-14T10:05:25.064Z,7.29
2019-04-14T10:10:33.994Z,7.73
2019-04-14T10:15:42.943Z,8.14
2019-04-14T10:20:51.862Z,5.90
2019-04-14T10:26:00.884Z,5.51
2019-04-14T10:31:09.879Z,7.20
2019-04-14T10:36:18.859Z,7.02
2019-04-14T10:41:27.782Z,5.28
2019-04-14T10:46:36.731Z,6.70
2019-04-14T10:51:45.666Z,7.03
2019-04-14T10:56:54.602Z,5.84
2019-04-14T11:02:03.559Z,6.65
2019-04-14T11:07:12.470Z,5.43
2019-04-14T11:12:21.454Z,6.55
2019-04-14T11:17:30.391Z,6.66
2019-04-14T11:22:39.358Z,6.36
2019-04-14T11:27:48.294Z,5.61
2019-04-14T11:32:57.457Z,5.32
2019-04-14T11:38:06.378Z,4.47
2019-04-14T11:43:15.331Z,3.98
2019-04-14T11:48:24.270Z,6.20
2019-04-14T11:53:33.210Z,4.62
2019-04-14T11:58:42.214Z,5.49
2019-04-14T12:03:51.143Z,5.41
2019-04-14T12:09:00.103Z,3.70
2019-04-14T12:14:09.059Z,4.55
2019-04-14T12:19:18.027Z,5.58
2019-04-14T12:24:26.967Z,5.87
2019-04-14T12:29:36.885Z,3.86
2019-04-14T12:34:44.419Z,5.51
2019-04-14T12:39:53.366Z,5.72
2019-04-14T12:45:02.313Z,4.47
2019-04-14T12:50:11.314Z,6.01
2019-04-14T12:55:20.252Z,5.69
2019-04-14T13:00:29.266Z,4.51
2019-04-14T13:05:38.196Z,5.22
2019-04-14T13:10:47.218Z,4.25
2019-04-14T13:15:56.079Z,5.39
2019-04-14T13:21:05.291Z,5.33
2019-04-14T13:26:14.214Z,5.25
2019-04-14T13:31:23.318Z,4.99
2019-04-14T13:36:32.239Z,5.39
2019-04-14T13:41:41.182Z,5.47
2019-04-14T13:46:50.159Z,5.15
2019-04-14T13:51:59.090Z,5.38
2019-04-14T13:57:08.070Z,4.89
2019-04-14T14:02:16.988Z,5.47
2019-04-14T14:07:25.991Z,5.25
2019-04-14T14:12:34.981Z,5.73
2019-04-14T14:17:43.971Z,5.14
2019-04-14T14:22:59.098Z,3.33
2019-04-14T14:28:01.384Z,5.02
2019-04-14T14:33:10.387Z,4.71
2019-04-14T14:38:19.376Z,4.84
2019-04-14T14:43:28.258Z,4.68
2019-04-14T14:48:37.286Z,4.88
2019-04-14T14:53:46.222Z,5.42
2019-04-14T14:58:55.214Z,4.77
2019-04-14T15:04:04.174Z,4.50
2019-04-14T15:09:13.155Z,4.70
2019-04-14T15:14:22.124Z,5.03
2019-04-14T15:19:31.366Z,3.66
2019-04-14T15:24:40.291Z,4.99
2019-04-14T15:29:49.263Z,4.87
2019-04-14T15:34:58.198Z,4.58
2019-04-14T15:40:07.246Z,4.11
2019-04-14T15:45:16.150Z,4.72
2019-04-14T15:50:25.099Z,4.65
2019-04-14T15:55:34.071Z,4.74
2019-04-14T16:00:43.035Z,4.19
2019-04-14T16:05:51.967Z,4.26
2019-04-14T16:11:00.976Z,4.43
2019-04-14T16:16:09.902Z,4.77
2019-04-14T16:21:18.841Z,4.18
2019-04-14T16:26:27.774Z,4.59
2019-04-14T16:31:36.767Z,4.18
2019-04-14T16:36:45.730Z,4.13
2019-04-14T16:41:54.926Z,4.05
2019-04-14T16:47:03.850Z,4.09
2019-04-14T16:52:12.835Z,4.62
2019-04-14T16:57:21.758Z,4.34
2019-04-14T17:02:30.683Z,4.66
2019-04-14T17:07:39.651Z,4.36
2019-04-14T17:12:48.593Z,4.18
2019-04-14T17:17:57.563Z,4.32
2019-04-14T17:23:06.482Z,4.91
2019-04-14T17:28:15.430Z,4.27
2019-04-14T17:33:24.384Z,4.63
2019-04-14T17:38:33.302Z,4.75
2019-04-14T17:43:42.249Z,5.04
2019-04-14T17:48:51.170Z,5.27
2019-04-14T17:54:00.162Z,5.23
2019-04-14T17:59:09.131Z,4.61
2019-04-14T18:04:18.106Z,5.08
2019-04-14T18:09:28.719Z,5.15
2019-04-14T18:14:35.534Z,5.27
2019-04-14T18:19:44.461Z,4.82
2019-04-14T18:24:53.412Z,4.94
2019-04-14T18:30:02.335Z,4.78
2019-04-14T18:35:11.285Z,4.80
2019-04-14T18:40:20.272Z,5.02
2019-04-14T18:45:29.198Z,5.26
2019-04-14T18:50:38.154Z,5.48
2019-04-14T18:55:47.094Z,4.96
2019-04-14T19:00:56.078Z,4.70
2019-04-14T19:06:05.012Z,5.73
2019-04-14T19:11:13.963Z,5.20
2019-04-14T19:16:22.907Z,4.74
2019-04-14T19:21:31.957Z,6.10
2019-04-14T19:26:40.878Z,5.19
2019-04-14T19:31:49.802Z,4.87
2019-04-14T19:36:58.726Z,5.22
2019-04-14T19:42:07.771Z,4.87
2019-04-14T19:47:16.714Z,4.99
2019-04-14T19:52:25.742Z,4.91
2019-04-14T19:57:34.719Z,4.98
2019-04-14T20:02:43.704Z,4.91
2019-04-14T20:07:52.622Z,5.04
2019-04-14T20:13:01.572Z,5.53
2019-04-14T20:18:10.550Z,5.09
2019-04-14T20:23:19.585Z,4.99
2019-04-14T20:28:28.422Z,5.41
2019-04-14T20:33:37.368Z,5.03
2019-04-14T20:38:46.370Z,4.82
2019-04-14T20:43:55.303Z,5.29
2019-04-14T20:49:04.401Z,5.24
2019-04-14T20:54:13.319Z,5.05
2019-04-14T20:59:22.274Z,5.07
2019-04-14T21:04:31.190Z,4.87
2019-04-14T21:09:40.149Z,5.23
2019-04-14T21:14:49.095Z,5.15
2019-04-14T21:19:58.006Z,5.44
2019-04-14T21:25:07.006Z,5.07
2019-04-14T21:30:15.966Z,5.17
2019-04-14T21:35:24.918Z,5.18
2019-04-14T21:40:37.074Z,5.10
2019-04-14T21:45:38.680Z,5.17
2019-04-14T21:50:45.787Z,5.18
2019-04-14T21:55:54.792Z,4.56
2019-04-14T22:01:03.715Z,5.11
2019-04-14T22:06:12.659Z,4.95
2019-04-14T22:11:21.574Z,5.11
2019-04-14T22:16:30.574Z,5.18
2019-04-14T22:21:39.488Z,5.40
2019-04-14T22:26:48.485Z,5.09
2019-04-14T22:31:57.396Z,5.49
2019-04-14T22:37:06.359Z,5.53
2019-04-14T22:42:15.314Z,5.21
2019-04-14T22:47:24.282Z,5.07
2019-04-14T22:52:33.266Z,4.95
2019-04-14T22:57:42.206Z,5.21
2019-04-14T23:02:51.242Z,5.39
2019-04-14T23:08:00.166Z,4.94
2019-04-14T23:13:09.110Z,5.95
2019-04-14T23:18:18.042Z,5.31
2019-04-14T23:23:27.035Z,5.10
2019-04-14T23:28:35.974Z,5.35
2019-04-14T23:33:45.102Z,5.08
2019-04-14T23:38:54.047Z,5.39
2019-04-14T23:44:03.034Z,5.35
2019-04-14T23:49:11.963Z,5.00
2019-04-14T23:54:20.911Z,5.63
2019-04-14T23:59:29.941Z,4.94
